sensor_id;sensor_type;location;lat;lon;timestamp;P1;durP1;ratioP1;P2;durP2;ratioP2
8361;SDS011;4218;48.326;14.304;2022-09-17T00:02:19;2.37;;;2.27;;
8361;SDS011;4218;48.326;14.304;2022-09-17T00:04:46;3.60;;;2.60;;
8361;SDS011;4218;48.326;14.304;2022-09-17T00:07:13;2.53;;;2.33;;
8361;SDS011;4218;48.326;14.304;2022-09-17T00:09:38;2.90;;;2.70;;
8361;SDS011;4218;48.326;14.304;2022-09-17T00:12:04;4.53;;;2.80;;
8361;SDS011;4218;48.326;14.304;2022-09-17T00:14:29;5.73;;;2.90;;
8361;SDS011;4218;48.326;14.304;2022-09-17T00:16:55;2.67;;;2.50;;
8361;SDS011;4218;48.326;14.304;2022-09-17T00:19:21;3.30;;;3.00;;
8361;SDS011;4218;48.326;14.304;2022-09-17T00:21:48;2.87;;;2.60;;
8361;SDS011;4218;48.326;14.304;2022-09-17T00:24:14;3.40;;;3.07;;
8361;SDS011;4218;48.326;14.304;2022-09-17T00:26:40;3.50;;;3.20;;
8361;SDS011;4218;48.326;14.304;2022-09-17T00:29:06;3.20;;;2.90;;
8361;SDS011;4218;48.326;14.304;2022-09-17T00:31:32;2.57;;;2.40;;
8361;SDS011;4218;48.326;14.304;2022-09-17T00:33:59;3.50;;;3.20;;
8361;SDS011;4218;48.326;14.304;2022-09-17T00:36:25;2.37;;;2.17;;
8361;SDS011;4218;48.326;14.304;2022-09-17T00:38:55;3.10;;;2.80;;
8361;SDS011;4218;48.326;14.304;2022-09-17T00:41:23;3.37;;;2.87;;
8361;SDS011;4218;48.326;14.304;2022-09-17T00:43:51;3.93;;;2.83;;
8361;SDS011;4218;48.326;14.304;2022-09-17T00:49:11;3.37;;;3.00;;
8361;SDS011;4218;48.326;14.304;2022-09-17T00:52:15;4.77;;;2.97;;
8361;SDS011;4218;48.326;14.304;2022-09-17T00:54:35;3.97;;;2.47;;
8361;SDS011;4218;48.326;14.304;2022-09-17T00:57:04;3.10;;;2.90;;
8361;SDS011;4218;48.326;14.304;2022-09-17T00:59:30;4.20;;;3.07;;
8361;SDS011;4218;48.326;14.304;2022-09-17T01:01:56;3.20;;;3.00;;
8361;SDS011;4218;48.326;14.304;2022-09-17T01:04:23;3.17;;;2.80;;
8361;SDS011;4218;48.326;14.304;2022-09-17T01:06:54;3.90;;;3.57;;
8361;SDS011;4218;48.326;14.304;2022-09-17T01:28:43;4.30;;;3.53;;
8361;SDS011;4218;48.326;14.304;2022-09-17T01:33:48;4.17;;;3.40;;
8361;SDS011;4218;48.326;14.304;2022-09-17T01:36:25;3.53;;;3.23;;
8361;SDS011;4218;48.326;14.304;2022-09-17T01:39:09;3.50;;;3.20;;
8361;SDS011;4218;48.326;14.304;2022-09-17T01:47:33;4.63;;;3.33;;
8361;SDS011;4218;48.326;14.304;2022-09-17T01:50:04;4.00;;;3.60;;
8361;SDS011;4218;48.326;14.304;2022-09-17T01:52:35;2.93;;;2.73;;
8361;SDS011;4218;48.326;14.304;2022-09-17T01:55:10;3.43;;;3.13;;
8361;SDS011;4218;48.326;14.304;2022-09-17T01:57:40;5.23;;;3.33;;
8361;SDS011;4218;48.326;14.304;2022-09-17T02:00:23;3.40;;;3.10;;
8361;SDS011;4218;48.326;14.304;2022-09-17T02:03:03;3.13;;;2.93;;
8361;SDS011;4218;48.326;14.304;2022-09-17T02:05:44;2.90;;;2.70;;
8361;SDS011;4218;48.326;14.304;2022-09-17T02:08:14;6.23;;;3.40;;
8361;SDS011;4218;48.326;14.304;2022-09-17T02:10:46;3.17;;;2.87;;
8361;SDS011;4218;48.326;14.304;2022-09-17T02:13:21;3.17;;;2.97;;
8361;SDS011;4218;48.326;14.304;2022-09-17T02:15:53;3.77;;;3.37;;
8361;SDS011;4218;48.326;14.304;2022-09-17T02:18:44;3.83;;;3.20;;
8361;SDS011;4218;48.326;14.304;2022-09-17T02:21:15;2.87;;;2.60;;
8361;SDS011;4218;48.326;14.304;2022-09-17T02:23:51;6.60;;;2.90;;
8361;SDS011;4218;48.326;14.304;2022-09-17T02:26:43;3.43;;;3.13;;
8361;SDS011;4218;48.326;14.304;2022-09-17T02:29:17;3.10;;;2.90;;
8361;SDS011;4218;48.326;14.304;2022-09-17T02:31:53;3.37;;;3.03;;
8361;SDS011;4218;48.326;14.304;2022-09-17T02:34:19;3.87;;;2.40;;
8361;SDS011;4218;48.326;14.304;2022-09-17T02:36:46;3.80;;;2.70;;
8361;SDS011;4218;48.326;14.304;2022-09-17T02:39:11;2.73;;;2.53;;
8361;SDS011;4218;48.326;14.304;2022-09-17T02:53:31;2.17;;;1.97;;
8361;SDS011;4218;48.326;14.304;2022-09-17T02:58:25;3.00;;;2.73;;
8361;SDS011;4218;48.326;14.304;2022-09-17T03:00:56;3.13;;;2.87;;
8361;SDS011;4218;48.326;14.304;2022-09-17T03:03:37;3.30;;;2.80;;
8361;SDS011;4218;48.326;14.304;2022-09-17T03:06:05;3.07;;;2.87;;
8361;SDS011;4218;48.326;14.304;2022-09-17T03:08:34;2.97;;;2.67;;
8361;SDS011;4218;48.326;14.304;2022-09-17T03:11:03;3.33;;;2.93;;
8361;SDS011;4218;48.326;14.304;2022-09-17T03:13:29;2.83;;;2.63;;
8361;SDS011;4218;48.326;14.304;2022-09-17T03:15:55;3.40;;;3.10;;
8361;SDS011;4218;48.326;14.304;2022-09-17T03:18:21;2.50;;;2.30;;
8361;SDS011;4218;48.326;14.304;2022-09-17T03:20:46;2.17;;;2.03;;
8361;SDS011;4218;48.326;14.304;2022-09-17T03:23:12;2.57;;;2.37;;
8361;SDS011;4218;48.326;14.304;2022-09-17T03:25:37;2.17;;;2.07;;
8361;SDS011;4218;48.326;14.304;2022-09-17T03:28:02;2.20;;;2.10;;
8361;SDS011;4218;48.326;14.304;2022-09-17T03:30:28;2.20;;;2.10;;
8361;SDS011;4218;48.326;14.304;2022-09-17T03:32:53;2.20;;;2.10;;
8361;SDS011;4218;48.326;14.304;2022-09-17T03:35:20;2.73;;;2.53;;
8361;SDS011;4218;48.326;14.304;2022-09-17T03:37:45;2.53;;;2.40;;
8361;SDS011;4218;48.326;14.304;2022-09-17T03:40:11;2.73;;;2.53;;
8361;SDS011;4218;48.326;14.304;2022-09-17T03:42:36;3.33;;;2.43;;
8361;SDS011;4218;48.326;14.304;2022-09-17T03:45:02;2.87;;;2.67;;
8361;SDS011;4218;48.326;14.304;2022-09-17T03:47:27;2.40;;;2.30;;
8361;SDS011;4218;48.326;14.304;2022-09-17T03:49:53;2.40;;;2.30;;
8361;SDS011;4218;48.326;14.304;2022-09-17T03:52:19;2.33;;;2.20;;
8361;SDS011;4218;48.326;14.304;2022-09-17T03:54:44;2.60;;;2.40;;
8361;SDS011;4218;48.326;14.304;2022-09-17T03:57:09;2.47;;;2.27;;
8361;SDS011;4218;48.326;14.304;2022-09-17T03:59:35;2.10;;;2.00;;
8361;SDS011;4218;48.326;14.304;2022-09-17T04:02:00;2.40;;;2.20;;
8361;SDS011;4218;48.326;14.304;2022-09-17T04:04:26;2.70;;;1.90;;
8361;SDS011;4218;48.326;14.304;2022-09-17T04:06:51;2.47;;;2.30;;
8361;SDS011;4218;48.326;14.304;2022-09-17T04:09:17;2.67;;;2.47;;
8361;SDS011;4218;48.326;14.304;2022-09-17T04:11:42;1.93;;;1.83;;
8361;SDS011;4218;48.326;14.304;2022-09-17T04:14:08;2.13;;;2.03;;
8361;SDS011;4218;48.326;14.304;2022-09-17T04:16:33;1.90;;;1.80;;
8361;SDS011;4218;48.326;14.304;2022-09-17T04:18:59;2.47;;;2.27;;
8361;SDS011;4218;48.326;14.304;2022-09-17T04:21:24;2.30;;;2.10;;
8361;SDS011;4218;48.326;14.304;2022-09-17T04:23:49;1.70;;;1.60;;
8361;SDS011;4218;48.326;14.304;2022-09-17T04:26:15;2.73;;;2.30;;
8361;SDS011;4218;48.326;14.304;2022-09-17T04:28:40;3.10;;;1.70;;
8361;SDS011;4218;48.326;14.304;2022-09-17T04:31:06;1.30;;;1.30;;
8361;SDS011;4218;48.326;14.304;2022-09-17T04:33:31;1.43;;;1.43;;
8361;SDS011;4218;48.326;14.304;2022-09-17T04:35:56;1.47;;;1.40;;
8361;SDS011;4218;48.326;14.304;2022-09-17T04:38:22;1.43;;;1.43;;
8361;SDS011;4218;48.326;14.304;2022-09-17T04:40:47;1.20;;;1.20;;
8361;SDS011;4218;48.326;14.304;2022-09-17T04:43:13;1.93;;;1.83;;
8361;SDS011;4218;48.326;14.304;2022-09-17T04:45:39;1.20;;;1.20;;
8361;SDS011;4218;48.326;14.304;2022-09-17T04:48:04;1.30;;;1.30;;
8361;SDS011;4218;48.326;14.304;2022-09-17T04:50:30;1.00;;;1.00;;
8361;SDS011;4218;48.326;14.304;2022-09-17T04:52:55;1.10;;;1.10;;
8361;SDS011;4218;48.326;14.304;2022-09-17T04:55:21;0.90;;;0.90;;
8361;SDS011;4218;48.326;14.304;2022-09-17T04:57:47;0.90;;;0.90;;
8361;SDS011;4218;48.326;14.304;2022-09-17T05:00:13;1.00;;;1.00;;
8361;SDS011;4218;48.326;14.304;2022-09-17T05:02:40;1.03;;;1.03;;
8361;SDS011;4218;48.326;14.304;2022-09-17T05:05:07;0.93;;;0.93;;
8361;SDS011;4218;48.326;14.304;2022-09-17T05:07:33;0.90;;;0.90;;
8361;SDS011;4218;48.326;14.304;2022-09-17T05:09:58;1.20;;;1.10;;
8361;SDS011;4218;48.326;14.304;2022-09-17T05:12:23;0.90;;;0.90;;
8361;SDS011;4218;48.326;14.304;2022-09-17T05:14:49;1.00;;;1.00;;
8361;SDS011;4218;48.326;14.304;2022-09-17T05:17:14;0.87;;;0.87;;
8361;SDS011;4218;48.326;14.304;2022-09-17T05:19:40;1.03;;;1.03;;
8361;SDS011;4218;48.326;14.304;2022-09-17T05:22:05;1.13;;;1.13;;
8361;SDS011;4218;48.326;14.304;2022-09-17T05:24:30;1.13;;;1.03;;
8361;SDS011;4218;48.326;14.304;2022-09-17T05:26:56;1.07;;;1.07;;
8361;SDS011;4218;48.326;14.304;2022-09-17T05:29:21;1.23;;;1.20;;
8361;SDS011;4218;48.326;14.304;2022-09-17T05:31:46;1.03;;;1.03;;
8361;SDS011;4218;48.326;14.304;2022-09-17T05:34:12;0.70;;;0.70;;
8361;SDS011;4218;48.326;14.304;2022-09-17T05:36:37;0.93;;;0.93;;
8361;SDS011;4218;48.326;14.304;2022-09-17T05:39:02;0.73;;;0.73;;
8361;SDS011;4218;48.326;14.304;2022-09-17T05:41:28;0.90;;;0.90;;
8361;SDS011;4218;48.326;14.304;2022-09-17T05:43:53;1.00;;;1.00;;
8361;SDS011;4218;48.326;14.304;2022-09-17T05:46:19;5.03;;;1.00;;
8361;SDS011;4218;48.326;14.304;2022-09-17T05:48:44;1.00;;;0.93;;
8361;SDS011;4218;48.326;14.304;2022-09-17T05:51:10;1.10;;;1.00;;
8361;SDS011;4218;48.326;14.304;2022-09-17T05:53:35;1.00;;;1.00;;
8361;SDS011;4218;48.326;14.304;2022-09-17T05:56:01;1.30;;;1.20;;
8361;SDS011;4218;48.326;14.304;2022-09-17T05:58:27;4.93;;;2.23;;
8361;SDS011;4218;48.326;14.304;2022-09-17T06:00:53;3.23;;;1.37;;
8361;SDS011;4218;48.326;14.304;2022-09-17T06:03:18;0.90;;;0.90;;
8361;SDS011;4218;48.326;14.304;2022-09-17T06:05:56;0.90;;;0.90;;
8361;SDS011;4218;48.326;14.304;2022-09-17T06:08:23;1.27;;;1.27;;
8361;SDS011;4218;48.326;14.304;2022-09-17T06:10:49;1.23;;;1.23;;
8361;SDS011;4218;48.326;14.304;2022-09-17T06:13:18;1.17;;;1.17;;
8361;SDS011;4218;48.326;14.304;2022-09-17T06:15:48;1.20;;;1.20;;
8361;SDS011;4218;48.326;14.304;2022-09-17T06:18:17;1.17;;;1.17;;
8361;SDS011;4218;48.326;14.304;2022-09-17T06:20:57;1.10;;;1.10;;
8361;SDS011;4218;48.326;14.304;2022-09-17T06:23:24;1.63;;;1.53;;
8361;SDS011;4218;48.326;14.304;2022-09-17T06:25:59;1.10;;;1.00;;
8361;SDS011;4218;48.326;14.304;2022-09-17T06:28:25;1.90;;;1.30;;
8361;SDS011;4218;48.326;14.304;2022-09-17T06:30:51;1.13;;;1.10;;
8361;SDS011;4218;48.326;14.304;2022-09-17T06:33:18;1.10;;;1.10;;
8361;SDS011;4218;48.326;14.304;2022-09-17T06:35:47;1.00;;;1.00;;
8361;SDS011;4218;48.326;14.304;2022-09-17T06:38:13;0.93;;;0.93;;
8361;SDS011;4218;48.326;14.304;2022-09-17T06:40:39;1.27;;;1.17;;
8361;SDS011;4218;48.326;14.304;2022-09-17T06:43:05;1.07;;;1.07;;
8361;SDS011;4218;48.326;14.304;2022-09-17T06:45:31;1.73;;;1.63;;
8361;SDS011;4218;48.326;14.304;2022-09-17T06:48:02;1.03;;;1.03;;
8361;SDS011;4218;48.326;14.304;2022-09-17T06:50:29;3.50;;;1.37;;
8361;SDS011;4218;48.326;14.304;2022-09-17T06:52:55;1.97;;;1.17;;
8361;SDS011;4218;48.326;14.304;2022-09-17T06:55:20;1.70;;;1.50;;
8361;SDS011;4218;48.326;14.304;2022-09-17T06:57:52;1.47;;;1.37;;
8361;SDS011;4218;48.326;14.304;2022-09-17T07:00:17;1.10;;;1.10;;
8361;SDS011;4218;48.326;14.304;2022-09-17T07:02:57;1.97;;;1.40;;
8361;SDS011;4218;48.326;14.304;2022-09-17T07:05:25;2.20;;;1.67;;
8361;SDS011;4218;48.326;14.304;2022-09-17T07:07:51;1.50;;;1.43;;
8361;SDS011;4218;48.326;14.304;2022-09-17T07:10:16;1.27;;;1.20;;
8361;SDS011;4218;48.326;14.304;2022-09-17T07:12:47;1.27;;;1.27;;
8361;SDS011;4218;48.326;14.304;2022-09-17T07:15:13;0.80;;;0.80;;
8361;SDS011;4218;48.326;14.304;2022-09-17T07:17:40;1.17;;;1.13;;
8361;SDS011;4218;48.326;14.304;2022-09-17T07:20:08;2.33;;;1.37;;
8361;SDS011;4218;48.326;14.304;2022-09-17T07:22:39;0.97;;;0.97;;
8361;SDS011;4218;48.326;14.304;2022-09-17T07:25:05;3.33;;;1.17;;
8361;SDS011;4218;48.326;14.304;2022-09-17T07:27:31;0.93;;;0.93;;
8361;SDS011;4218;48.326;14.304;2022-09-17T07:29:57;0.60;;;0.60;;
8361;SDS011;4218;48.326;14.304;2022-09-17T07:32:22;0.80;;;0.80;;
8361;SDS011;4218;48.326;14.304;2022-09-17T07:34:48;1.37;;;1.17;;
8361;SDS011;4218;48.326;14.304;2022-09-17T07:37:14;1.17;;;1.10;;
8361;SDS011;4218;48.326;14.304;2022-09-17T07:39:40;1.30;;;1.00;;
8361;SDS011;4218;48.326;14.304;2022-09-17T07:42:06;0.90;;;0.90;;
8361;SDS011;4218;48.326;14.304;2022-09-17T07:44:32;2.47;;;1.10;;
8361;SDS011;4218;48.326;14.304;2022-09-17T07:46:57;0.90;;;0.90;;
8361;SDS011;4218;48.326;14.304;2022-09-17T07:49:22;0.80;;;0.80;;
8361;SDS011;4218;48.326;14.304;2022-09-17T07:51:51;0.90;;;0.90;;
8361;SDS011;4218;48.326;14.304;2022-09-17T07:54:30;1.23;;;1.13;;
8361;SDS011;4218;48.326;14.304;2022-09-17T07:56:55;1.17;;;1.17;;
8361;SDS011;4218;48.326;14.304;2022-09-17T07:59:21;0.93;;;0.93;;
8361;SDS011;4218;48.326;14.304;2022-09-17T08:01:46;1.60;;;1.17;;
8361;SDS011;4218;48.326;14.304;2022-09-17T08:04:12;2.43;;;1.00;;
8361;SDS011;4218;48.326;14.304;2022-09-17T08:06:38;0.80;;;0.80;;
8361;SDS011;4218;48.326;14.304;2022-09-17T08:09:05;0.70;;;0.70;;
8361;SDS011;4218;48.326;14.304;2022-09-17T08:11:31;1.03;;;1.03;;
8361;SDS011;4218;48.326;14.304;2022-09-17T08:13:56;3.03;;;1.10;;
8361;SDS011;4218;48.326;14.304;2022-09-17T08:16:22;0.90;;;0.90;;
8361;SDS011;4218;48.326;14.304;2022-09-17T08:18:57;0.87;;;0.87;;
8361;SDS011;4218;48.326;14.304;2022-09-17T08:21:22;0.73;;;0.73;;
8361;SDS011;4218;48.326;14.304;2022-09-17T08:23:48;4.13;;;0.97;;
8361;SDS011;4218;48.326;14.304;2022-09-17T08:26:17;0.80;;;0.70;;
8361;SDS011;4218;48.326;14.304;2022-09-17T08:28:54;0.90;;;0.90;;
8361;SDS011;4218;48.326;14.304;2022-09-17T08:31:24;1.20;;;0.70;;
8361;SDS011;4218;48.326;14.304;2022-09-17T08:33:50;1.53;;;1.00;;
8361;SDS011;4218;48.326;14.304;2022-09-17T08:36:19;0.87;;;0.87;;
8361;SDS011;4218;48.326;14.304;2022-09-17T08:38:46;0.90;;;0.90;;
8361;SDS011;4218;48.326;14.304;2022-09-17T08:41:22;0.70;;;0.70;;
8361;SDS011;4218;48.326;14.304;2022-09-17T08:44:15;0.77;;;0.77;;
8361;SDS011;4218;48.326;14.304;2022-09-17T08:47:01;1.13;;;1.13;;
8361;SDS011;4218;48.326;14.304;2022-09-17T09:00:49;0.77;;;0.77;;
8361;SDS011;4218;48.326;14.304;2022-09-17T09:06:03;1.53;;;1.10;;
8361;SDS011;4218;48.326;14.304;2022-09-17T09:08:36;2.53;;;1.17;;
8361;SDS011;4218;48.326;14.304;2022-09-17T09:11:10;1.00;;;1.00;;
8361;SDS011;4218;48.326;14.304;2022-09-17T09:13:59;0.90;;;0.90;;
8361;SDS011;4218;48.326;14.304;2022-09-17T09:16:40;1.80;;;1.00;;
8361;SDS011;4218;48.326;14.304;2022-09-17T09:19:13;2.97;;;1.47;;
8361;SDS011;4218;48.326;14.304;2022-09-17T09:24:28;2.27;;;1.10;;
8361;SDS011;4218;48.326;14.304;2022-09-17T09:30:11;0.93;;;0.93;;
8361;SDS011;4218;48.326;14.304;2022-09-17T09:32:56;2.00;;;1.30;;
8361;SDS011;4218;48.326;14.304;2022-09-17T09:35:26;1.70;;;1.40;;
8361;SDS011;4218;48.326;14.304;2022-09-17T09:43:47;0.87;;;0.87;;
8361;SDS011;4218;48.326;14.304;2022-09-17T10:01:01;1.10;;;1.10;;
8361;SDS011;4218;48.326;14.304;2022-09-17T10:03:28;1.30;;;1.10;;
8361;SDS011;4218;48.326;14.304;2022-09-17T10:06:06;1.00;;;1.00;;
8361;SDS011;4218;48.326;14.304;2022-09-17T10:08:35;1.17;;;1.17;;
8361;SDS011;4218;48.326;14.304;2022-09-17T10:11:04;1.67;;;1.40;;
8361;SDS011;4218;48.326;14.304;2022-09-17T10:13:50;2.10;;;1.20;;
8361;SDS011;4218;48.326;14.304;2022-09-17T10:16:22;2.23;;;1.13;;
8361;SDS011;4218;48.326;14.304;2022-09-17T10:21:39;1.00;;;1.00;;
8361;SDS011;4218;48.326;14.304;2022-09-17T10:24:23;2.50;;;1.00;;
8361;SDS011;4218;48.326;14.304;2022-09-17T10:26:52;3.73;;;1.27;;
8361;SDS011;4218;48.326;14.304;2022-09-17T10:29:29;0.80;;;0.80;;
8361;SDS011;4218;48.326;14.304;2022-09-17T10:31:56;1.00;;;1.00;;
8361;SDS011;4218;48.326;14.304;2022-09-17T10:34:23;1.17;;;0.90;;
8361;SDS011;4218;48.326;14.304;2022-09-17T10:36:52;2.20;;;1.43;;
8361;SDS011;4218;48.326;14.304;2022-09-17T10:41:55;1.80;;;1.33;;
8361;SDS011;4218;48.326;14.304;2022-09-17T10:44:37;1.20;;;1.17;;
8361;SDS011;4218;48.326;14.304;2022-09-17T10:47:13;1.13;;;0.97;;
8361;SDS011;4218;48.326;14.304;2022-09-17T10:50:16;1.20;;;1.10;;
8361;SDS011;4218;48.326;14.304;2022-09-17T10:53:04;0.63;;;0.63;;
8361;SDS011;4218;48.326;14.304;2022-09-17T10:56:02;2.00;;;0.80;;
8361;SDS011;4218;48.326;14.304;2022-09-17T11:07:32;1.60;;;1.30;;
8361;SDS011;4218;48.326;14.304;2022-09-17T11:10:06;1.40;;;1.10;;
8361;SDS011;4218;48.326;14.304;2022-09-17T11:21:51;0.77;;;0.77;;
8361;SDS011;4218;48.326;14.304;2022-09-17T11:24:48;3.13;;;0.90;;
8361;SDS011;4218;48.326;14.304;2022-09-17T11:36:28;0.80;;;0.80;;
8361;SDS011;4218;48.326;14.304;2022-09-17T11:39:51;0.70;;;0.70;;
8361;SDS011;4218;48.326;14.304;2022-09-17T11:42:19;0.70;;;0.70;;
8361;SDS011;4218;48.326;14.304;2022-09-17T11:44:53;0.50;;;0.50;;
8361;SDS011;4218;48.326;14.304;2022-09-17T11:47:55;0.83;;;0.60;;
8361;SDS011;4218;48.326;14.304;2022-09-17T11:50:45;0.70;;;0.70;;
8361;SDS011;4218;48.326;14.304;2022-09-17T11:53:31;1.07;;;0.80;;
8361;SDS011;4218;48.326;14.304;2022-09-17T11:56:13;1.60;;;1.10;;
8361;SDS011;4218;48.326;14.304;2022-09-17T11:59:52;1.70;;;0.60;;
8361;SDS011;4218;48.326;14.304;2022-09-17T12:05:25;0.93;;;0.73;;
8361;SDS011;4218;48.326;14.304;2022-09-17T12:18:43;0.50;;;0.47;;
8361;SDS011;4218;48.326;14.304;2022-09-17T12:21:43;1.23;;;0.70;;
8361;SDS011;4218;48.326;14.304;2022-09-17T12:40:25;0.40;;;0.40;;
8361;SDS011;4218;48.326;14.304;2022-09-17T12:52:00;0.40;;;0.40;;
8361;SDS011;4218;48.326;14.304;2022-09-17T13:03:51;0.40;;;0.40;;
8361;SDS011;4218;48.326;14.304;2022-09-17T13:06:50;0.40;;;0.40;;
8361;SDS011;4218;48.326;14.304;2022-09-17T13:16:22;0.63;;;0.63;;
8361;SDS011;4218;48.326;14.304;2022-09-17T13:22:00;0.30;;;0.30;;
8361;SDS011;4218;48.326;14.304;2022-09-17T13:28:06;0.40;;;0.40;;
8361;SDS011;4218;48.326;14.304;2022-09-17T13:36:48;0.50;;;0.50;;
8361;SDS011;4218;48.326;14.304;2022-09-17T13:45:06;0.53;;;0.50;;
8361;SDS011;4218;48.326;14.304;2022-09-17T13:47:38;0.40;;;0.40;;
8361;SDS011;4218;48.326;14.304;2022-09-17T13:50:23;1.70;;;0.50;;
8361;SDS011;4218;48.326;14.304;2022-09-17T13:52:52;0.40;;;0.40;;
8361;SDS011;4218;48.326;14.304;2022-09-17T13:58:03;1.80;;;0.67;;
8361;SDS011;4218;48.326;14.304;2022-09-17T14:08:58;0.77;;;0.70;;
8361;SDS011;4218;48.326;14.304;2022-09-17T14:19:03;0.67;;;0.67;;
8361;SDS011;4218;48.326;14.304;2022-09-17T14:32:23;0.93;;;0.70;;
8361;SDS011;4218;48.326;14.304;2022-09-17T14:34:56;0.70;;;0.70;;
8361;SDS011;4218;48.326;14.304;2022-09-17T14:37:28;0.73;;;0.73;;
8361;SDS011;4218;48.326;14.304;2022-09-17T14:40:08;0.40;;;0.40;;
8361;SDS011;4218;48.326;14.304;2022-09-17T14:42:54;0.73;;;0.73;;
8361;SDS011;4218;48.326;14.304;2022-09-17T14:45:22;0.73;;;0.73;;
8361;SDS011;4218;48.326;14.304;2022-09-17T14:54:05;1.30;;;0.60;;
8361;SDS011;4218;48.326;14.304;2022-09-17T14:57:09;0.90;;;0.90;;
8361;SDS011;4218;48.326;14.304;2022-09-17T14:59:44;1.33;;;0.80;;
8361;SDS011;4218;48.326;14.304;2022-09-17T15:02:36;0.70;;;0.70;;
8361;SDS011;4218;48.326;14.304;2022-09-17T15:05:18;0.70;;;0.70;;
8361;SDS011;4218;48.326;14.304;2022-09-17T15:07:47;0.70;;;0.70;;
8361;SDS011;4218;48.326;14.304;2022-09-17T15:10:14;0.60;;;0.60;;
8361;SDS011;4218;48.326;14.304;2022-09-17T15:12:41;0.93;;;0.93;;
8361;SDS011;4218;48.326;14.304;2022-09-17T15:15:18;1.70;;;0.97;;
8361;SDS011;4218;48.326;14.304;2022-09-17T15:17:46;0.80;;;0.80;;
8361;SDS011;4218;48.326;14.304;2022-09-17T15:20:31;0.63;;;0.63;;
8361;SDS011;4218;48.326;14.304;2022-09-17T15:23:08;0.93;;;0.93;;
8361;SDS011;4218;48.326;14.304;2022-09-17T15:25:43;2.00;;;1.07;;
8361;SDS011;4218;48.326;14.304;2022-09-17T15:28:26;0.90;;;0.90;;
8361;SDS011;4218;48.326;14.304;2022-09-17T15:30:54;1.03;;;1.00;;
8361;SDS011;4218;48.326;14.304;2022-09-17T15:33:22;2.17;;;1.30;;
8361;SDS011;4218;48.326;14.304;2022-09-17T15:35:58;1.07;;;0.80;;
8361;SDS011;4218;48.326;14.304;2022-09-17T15:38:39;2.40;;;1.33;;
8361;SDS011;4218;48.326;14.304;2022-09-17T15:41:39;0.60;;;0.60;;
8361;SDS011;4218;48.326;14.304;2022-09-17T15:44:16;1.50;;;1.40;;
8361;SDS011;4218;48.326;14.304;2022-09-17T15:46:46;1.50;;;1.40;;
8361;SDS011;4218;48.326;14.304;2022-09-17T15:52:18;2.40;;;1.40;;
8361;SDS011;4218;48.326;14.304;2022-09-17T15:54:44;0.80;;;0.80;;
8361;SDS011;4218;48.326;14.304;2022-09-17T15:57:10;0.90;;;0.90;;
8361;SDS011;4218;48.326;14.304;2022-09-17T15:59:39;2.00;;;1.50;;
8361;SDS011;4218;48.326;14.304;2022-09-17T16:02:04;1.33;;;1.07;;
8361;SDS011;4218;48.326;14.304;2022-09-17T16:04:44;2.73;;;1.37;;
8361;SDS011;4218;48.326;14.304;2022-09-17T16:12:03;2.90;;;0.90;;
8361;SDS011;4218;48.326;14.304;2022-09-17T16:14:28;1.90;;;1.10;;
8361;SDS011;4218;48.326;14.304;2022-09-17T16:16:54;1.00;;;1.00;;
8361;SDS011;4218;48.326;14.304;2022-09-17T16:19:20;2.43;;;1.37;;
8361;SDS011;4218;48.326;14.304;2022-09-17T16:21:46;2.40;;;0.93;;
8361;SDS011;4218;48.326;14.304;2022-09-17T16:24:12;4.53;;;1.50;;
8361;SDS011;4218;48.326;14.304;2022-09-17T16:26:37;2.63;;;1.07;;
8361;SDS011;4218;48.326;14.304;2022-09-17T16:29:04;2.00;;;1.17;;
8361;SDS011;4218;48.326;14.304;2022-09-17T16:31:41;1.10;;;1.00;;
8361;SDS011;4218;48.326;14.304;2022-09-17T16:34:09;2.07;;;1.10;;
8361;SDS011;4218;48.326;14.304;2022-09-17T16:36:37;1.33;;;1.23;;
8361;SDS011;4218;48.326;14.304;2022-09-17T16:39:03;1.30;;;1.00;;
8361;SDS011;4218;48.326;14.304;2022-09-17T16:41:29;1.13;;;0.70;;
8361;SDS011;4218;48.326;14.304;2022-09-17T16:43:54;0.80;;;0.60;;
8361;SDS011;4218;48.326;14.304;2022-09-17T16:46:19;1.50;;;1.07;;
8361;SDS011;4218;48.326;14.304;2022-09-17T16:48:48;1.57;;;1.00;;
8361;SDS011;4218;48.326;14.304;2022-09-17T16:51:14;4.03;;;1.23;;
8361;SDS011;4218;48.326;14.304;2022-09-17T16:53:39;0.90;;;0.90;;
8361;SDS011;4218;48.326;14.304;2022-09-17T16:56:06;2.63;;;1.00;;
8361;SDS011;4218;48.326;14.304;2022-09-17T16:58:32;1.33;;;1.23;;
8361;SDS011;4218;48.326;14.304;2022-09-17T17:00:57;3.10;;;1.23;;
8361;SDS011;4218;48.326;14.304;2022-09-17T17:03:24;2.40;;;1.30;;
8361;SDS011;4218;48.326;14.304;2022-09-17T17:05:49;1.77;;;1.10;;
8361;SDS011;4218;48.326;14.304;2022-09-17T17:08:20;1.27;;;1.20;;
8361;SDS011;4218;48.326;14.304;2022-09-17T17:10:47;2.93;;;1.00;;
8361;SDS011;4218;48.326;14.304;2022-09-17T17:13:14;1.60;;;1.13;;
8361;SDS011;4218;48.326;14.304;2022-09-17T17:15:39;1.07;;;1.07;;
8361;SDS011;4218;48.326;14.304;2022-09-17T17:18:08;1.67;;;1.10;;
8361;SDS011;4218;48.326;14.304;2022-09-17T17:20:34;1.00;;;1.00;;
8361;SDS011;4218;48.326;14.304;2022-09-17T17:23:00;2.77;;;1.17;;
8361;SDS011;4218;48.326;14.304;2022-09-17T17:25:25;0.90;;;0.90;;
8361;SDS011;4218;48.326;14.304;2022-09-17T17:27:51;0.80;;;0.80;;
8361;SDS011;4218;48.326;14.304;2022-09-17T17:30:16;1.13;;;1.10;;
8361;SDS011;4218;48.326;14.304;2022-09-17T17:32:42;0.80;;;0.80;;
8361;SDS011;4218;48.326;14.304;2022-09-17T17:35:09;0.90;;;0.90;;
8361;SDS011;4218;48.326;14.304;2022-09-17T17:37:35;2.33;;;1.03;;
8361;SDS011;4218;48.326;14.304;2022-09-17T17:40:01;1.63;;;1.20;;
8361;SDS011;4218;48.326;14.304;2022-09-17T17:42:30;2.43;;;0.87;;
8361;SDS011;4218;48.326;14.304;2022-09-17T17:45:08;4.13;;;1.20;;
8361;SDS011;4218;48.326;14.304;2022-09-17T17:47:39;1.37;;;0.97;;
8361;SDS011;4218;48.326;14.304;2022-09-17T17:50:05;1.10;;;1.10;;
8361;SDS011;4218;48.326;14.304;2022-09-17T17:52:32;2.47;;;1.00;;
8361;SDS011;4218;48.326;14.304;2022-09-17T17:54:59;6.90;;;1.17;;
8361;SDS011;4218;48.326;14.304;2022-09-17T17:57:26;2.27;;;0.90;;
8361;SDS011;4218;48.326;14.304;2022-09-17T17:59:58;1.00;;;1.00;;
8361;SDS011;4218;48.326;14.304;2022-09-17T18:02:23;1.63;;;1.13;;
8361;SDS011;4218;48.326;14.304;2022-09-17T18:04:51;0.90;;;0.90;;
8361;SDS011;4218;48.326;14.304;2022-09-17T18:07:25;0.60;;;0.60;;
8361;SDS011;4218;48.326;14.304;2022-09-17T18:09:54;1.20;;;1.10;;
8361;SDS011;4218;48.326;14.304;2022-09-17T18:12:22;0.80;;;0.80;;
8361;SDS011;4218;48.326;14.304;2022-09-17T18:14:50;1.57;;;1.10;;
8361;SDS011;4218;48.326;14.304;2022-09-17T18:17:16;3.10;;;1.10;;
8361;SDS011;4218;48.326;14.304;2022-09-17T18:19:50;0.83;;;0.83;;
8361;SDS011;4218;48.326;14.304;2022-09-17T18:22:16;1.30;;;1.07;;
8361;SDS011;4218;48.326;14.304;2022-09-17T18:24:46;0.90;;;0.90;;
8361;SDS011;4218;48.326;14.304;2022-09-17T18:27:12;0.93;;;0.93;;
8361;SDS011;4218;48.326;14.304;2022-09-17T18:29:37;0.80;;;0.80;;
8361;SDS011;4218;48.326;14.304;2022-09-17T18:32:03;1.13;;;1.00;;
8361;SDS011;4218;48.326;14.304;2022-09-17T18:34:31;0.83;;;0.73;;
8361;SDS011;4218;48.326;14.304;2022-09-17T18:37:06;0.70;;;0.70;;
8361;SDS011;4218;48.326;14.304;2022-09-17T18:39:33;0.77;;;0.67;;
8361;SDS011;4218;48.326;14.304;2022-09-17T18:41:59;0.50;;;0.50;;
8361;SDS011;4218;48.326;14.304;2022-09-17T18:44:24;0.73;;;0.73;;
8361;SDS011;4218;48.326;14.304;2022-09-17T18:47:01;0.77;;;0.63;;
8361;SDS011;4218;48.326;14.304;2022-09-17T18:49:29;0.60;;;0.60;;
8361;SDS011;4218;48.326;14.304;2022-09-17T18:51:55;1.07;;;0.97;;
8361;SDS011;4218;48.326;14.304;2022-09-17T18:54:20;2.03;;;0.90;;
8361;SDS011;4218;48.326;14.304;2022-09-17T18:56:51;0.80;;;0.80;;
8361;SDS011;4218;48.326;14.304;2022-09-17T18:59:17;1.55;;;0.75;;
8361;SDS011;4218;48.326;14.304;2022-09-17T19:01:42;0.70;;;0.70;;
8361;SDS011;4218;48.326;14.304;2022-09-17T19:04:10;0.90;;;0.90;;
8361;SDS011;4218;48.326;14.304;2022-09-17T19:06:44;0.60;;;0.60;;
8361;SDS011;4218;48.326;14.304;2022-09-17T19:09:09;0.93;;;0.80;;
8361;SDS011;4218;48.326;14.304;2022-09-17T19:11:38;1.03;;;1.03;;
8361;SDS011;4218;48.326;14.304;2022-09-17T19:14:03;0.50;;;0.50;;
8361;SDS011;4218;48.326;14.304;2022-09-17T19:16:28;0.60;;;0.60;;